sensor_id;sensor_type;location;lat;lon;timestamp;temperature;humidity
20732;DHT22;10527;52.124;5.196;2023-02-01T00:00:59;5.90;99.90
20732;DHT22;10527;52.124;5.196;2023-02-01T00:03:33;6.00;99.90
20732;DHT22;10527;52.124;5.196;2023-02-01T00:06:04;6.00;99.90
20732;DHT22;10527;52.124;5.196;2023-02-01T00:08:34;6.00;99.90
20732;DHT22;10527;52.124;5.196;2023-02-01T00:11:22;6.10;99.90
20732;DHT22;10527;52.124;5.196;2023-02-01T00:13:50;6.10;99.90
20732;DHT22;10527;52.124;5.196;2023-02-01T00:16:22;6.10;99.90
20732;DHT22;10527;52.124;5.196;2023-02-01T00:19:06;6.10;99.90
20732;DHT22;10527;52.124;5.196;2023-02-01T00:21:44;6.10;99.90
20732;DHT22;10527;52.124;5.196;2023-02-01T00:24:12;6.10;99.90
20732;DHT22;10527;52.124;5.196;2023-02-01T00:26:42;6.20;99.90
20732;DHT22;10527;52.124;5.196;2023-02-01T00:29:13;6.20;99.90
20732;DHT22;10527;52.124;5.196;2023-02-01T00:31:45;6.20;99.90
20732;DHT22;10527;52.124;5.196;2023-02-01T00:34:14;6.20;99.90
20732;DHT22;10527;52.124;5.196;2023-02-01T00:36:43;6.20;99.90
20732;DHT22;10527;52.124;5.196;2023-02-01T00:39:11;6.30;99.90
20732;DHT22;10527;52.124;5.196;2023-02-01T00:41:38;6.30;99.90
20732;DHT22;10527;52.124;5.196;2023-02-01T00:44:07;6.40;99.90
20732;DHT22;10527;52.124;5.196;2023-02-01T00:46:34;6.40;99.90
20732;DHT22;10527;52.124;5.196;2023-02-01T00:49:01;6.40;99.90
20732;DHT22;10527;52.124;5.196;2023-02-01T00:51:31;6.50;99.90
20732;DHT22;10527;52.124;5.196;2023-02-01T00:54:00;6.60;99.90
20732;DHT22;10527;52.124;5.196;2023-02-01T00:56:26;6.60;99.90
20732;DHT22;10527;52.124;5.196;2023-02-01T00:58:54;6.60;99.90
20732;DHT22;10527;52.124;5.196;2023-02-01T01:01:26;6.70;99.90
20732;DHT22;10527;52.124;5.196;2023-02-01T01:04:00;6.70;99.90
20732;DHT22;10527;52.124;5.196;2023-02-01T01:06:29;6.70;99.90
20732;DHT22;10527;52.124;5.196;2023-02-01T01:08:59;6.70;99.90
20732;DHT22;10527;52.124;5.196;2023-02-01T01:11:30;6.70;99.90
20732;DHT22;10527;52.124;5.196;2023-02-01T01:14:00;6.80;99.90
20732;DHT22;10527;52.124;5.196;2023-02-01T01:16:29;6.80;99.90
20732;DHT22;10527;52.124;5.196;2023-02-01T01:18:57;6.70;99.90
20732;DHT22;10527;52.124;5.196;2023-02-01T01:21:25;6.70;99.90
20732;DHT22;10527;52.124;5.196;2023-02-01T01:23:52;6.70;99.90
20732;DHT22;10527;52.124;5.196;2023-02-01T01:26:22;6.70;99.90
20732;DHT22;10527;52.124;5.196;2023-02-01T01:28:54;6.70;99.90
20732;DHT22;10527;52.124;5.196;2023-02-01T01:31:22;6.70;99.90
20732;DHT22;10527;52.124;5.196;2023-02-01T01:33:52;6.80;99.90
20732;DHT22;10527;52.124;5.196;2023-02-01T01:36:21;6.70;99.90
20732;DHT22;10527;52.124;5.196;2023-02-01T01:38:50;6.70;99.90
20732;DHT22;10527;52.124;5.196;2023-02-01T01:41:21;6.80;99.90
20732;DHT22;10527;52.124;5.196;2023-02-01T01:43:59;6.80;99.90
20732;DHT22;10527;52.124;5.196;2023-02-01T01:46:28;6.80;99.90
20732;DHT22;10527;52.124;5.196;2023-02-01T01:49:20;6.80;99.90
20732;DHT22;10527;52.124;5.196;2023-02-01T01:51:56;6.80;99.90
20732;DHT22;10527;52.124;5.196;2023-02-01T01:54:34;6.80;99.90
20732;DHT22;10527;52.124;5.196;2023-02-01T01:57:09;6.90;99.90
20732;DHT22;10527;52.124;5.196;2023-02-01T01:59:46;6.90;99.90
20732;DHT22;10527;52.124;5.196;2023-02-01T02:02:19;6.90;99.90
20732;DHT22;10527;52.124;5.196;2023-02-01T02:04:46;6.90;99.90
20732;DHT22;10527;52.124;5.196;2023-02-01T02:07:20;6.90;99.90
20732;DHT22;10527;52.124;5.196;2023-02-01T02:09:49;6.90;99.90
20732;DHT22;10527;52.124;5.196;2023-02-01T02:12:26;7.00;99.90
20732;DHT22;10527;52.124;5.196;2023-02-01T02:14:53;7.00;99.90
20732;DHT22;10527;52.124;5.196;2023-02-01T02:17:30;7.00;99.90
20732;DHT22;10527;52.124;5.196;2023-02-01T02:23:31;7.00;99.90
20732;DHT22;10527;52.124;5.196;2023-02-01T02:35:30;7.00;99.90
20732;DHT22;10527;52.124;5.196;2023-02-01T02:39:03;7.10;99.90
20732;DHT22;10527;52.124;5.196;2023-02-01T02:44:35;7.10;99.90
20732;DHT22;10527;52.124;5.196;2023-02-01T02:47:44;7.20;99.90
20732;DHT22;10527;52.124;5.196;2023-02-01T02:50:32;7.10;99.90
20732;DHT22;10527;52.124;5.196;2023-02-01T02:53:30;7.20;99.90
20732;DHT22;10527;52.124;5.196;2023-02-01T02:56:23;7.20;99.90
20732;DHT22;10527;52.124;5.196;2023-02-01T02:59:14;7.20;99.90
20732;DHT22;10527;52.124;5.196;2023-02-01T03:02:02;7.20;99.90
20732;DHT22;10527;52.124;5.196;2023-02-01T03:04:54;7.20;99.90
20732;DHT22;10527;52.124;5.196;2023-02-01T03:07:54;7.20;99.90
20732;DHT22;10527;52.124;5.196;2023-02-01T03:13:35;7.10;99.90
20732;DHT22;10527;52.124;5.196;2023-02-01T03:19:11;7.10;99.90
20732;DHT22;10527;52.124;5.196;2023-02-01T03:24:34;7.10;99.90
20732;DHT22;10527;52.124;5.196;2023-02-01T03:27:15;7.00;99.90
20732;DHT22;10527;52.124;5.196;2023-02-01T03:29:59;7.00;99.90
20732;DHT22;10527;52.124;5.196;2023-02-01T03:32:36;7.00;99.90
20732;DHT22;10527;52.124;5.196;2023-02-01T03:38:55;6.90;99.90
20732;DHT22;10527;52.124;5.196;2023-02-01T03:41:59;6.90;99.90
20732;DHT22;10527;52.124;5.196;2023-02-01T03:44:34;6.90;99.90
20732;DHT22;10527;52.124;5.196;2023-02-01T03:47:17;6.90;99.90
20732;DHT22;10527;52.124;5.196;2023-02-01T03:49:52;6.90;99.90
20732;DHT22;10527;52.124;5.196;2023-02-01T03:52:39;6.90;99.90
20732;DHT22;10527;52.124;5.196;2023-02-01T03:55:12;6.90;99.90
20732;DHT22;10527;52.124;5.196;2023-02-01T03:58:06;6.90;99.90
20732;DHT22;10527;52.124;5.196;2023-02-01T04:00:38;6.90;99.90
20732;DHT22;10527;52.124;5.196;2023-02-01T04:03:06;6.90;99.90
20732;DHT22;10527;52.124;5.196;2023-02-01T04:05:34;6.90;99.90
20732;DHT22;10527;52.124;5.196;2023-02-01T04:08:08;7.00;99.90
20732;DHT22;10527;52.124;5.196;2023-02-01T04:10:35;7.00;99.90
20732;DHT22;10527;52.124;5.196;2023-02-01T04:13:01;7.00;99.90
20732;DHT22;10527;52.124;5.196;2023-02-01T04:15:28;7.00;99.90
20732;DHT22;10527;52.124;5.196;2023-02-01T04:17:55;7.00;99.90
20732;DHT22;10527;52.124;5.196;2023-02-01T04:20:24;7.00;99.90
20732;DHT22;10527;52.124;5.196;2023-02-01T04:22:54;7.00;99.90
20732;DHT22;10527;52.124;5.196;2023-02-01T04:25:21;7.00;99.90
20732;DHT22;10527;52.124;5.196;2023-02-01T04:27:48;7.00;99.90
20732;DHT22;10527;52.124;5.196;2023-02-01T04:30:15;7.00;99.90
20732;DHT22;10527;52.124;5.196;2023-02-01T04:32:43;7.00;99.90
20732;DHT22;10527;52.124;5.196;2023-02-01T04:35:10;7.10;99.90
20732;DHT22;10527;52.124;5.196;2023-02-01T04:37:38;7.10;99.90
20732;DHT22;10527;52.124;5.196;2023-02-01T04:40:05;7.10;99.90
20732;DHT22;10527;52.124;5.196;2023-02-01T04:42:32;7.10;99.90
20732;DHT22;10527;52.124;5.196;2023-02-01T04:44:59;7.10;99.90
20732;DHT22;10527;52.124;5.196;2023-02-01T04:47:26;7.00;99.90
20732;DHT22;10527;52.124;5.196;2023-02-01T04:49:56;7.00;99.90
20732;DHT22;10527;52.124;5.196;2023-02-01T04:52:25;6.90;99.90
20732;DHT22;10527;52.124;5.196;2023-02-01T04:54:53;7.00;99.90
20732;DHT22;10527;52.124;5.196;2023-02-01T04:57:26;6.90;99.90
20732;DHT22;10527;52.124;5.196;2023-02-01T04:59:55;6.90;99.90
20732;DHT22;10527;52.124;5.196;2023-02-01T05:02:24;6.80;99.90
20732;DHT22;10527;52.124;5.196;2023-02-01T05:04:51;6.80;99.90
20732;DHT22;10527;52.124;5.196;2023-02-01T05:07:20;6.80;99.90
20732;DHT22;10527;52.124;5.196;2023-02-01T05:09:52;6.80;99.90
20732;DHT22;10527;52.124;5.196;2023-02-01T05:12:20;6.70;99.90
20732;DHT22;10527;52.124;5.196;2023-02-01T05:15:06;6.70;99.90
20732;DHT22;10527;52.124;5.196;2023-02-01T05:17:33;6.70;99.90
20732;DHT22;10527;52.124;5.196;2023-02-01T05:19:59;6.80;99.90
20732;DHT22;10527;52.124;5.196;2023-02-01T05:22:26;6.70;99.90
20732;DHT22;10527;52.124;5.196;2023-02-01T05:24:53;6.70;99.90
20732;DHT22;10527;52.124;5.196;2023-02-01T05:27:20;6.70;99.90
20732;DHT22;10527;52.124;5.196;2023-02-01T05:29:47;6.70;99.90
20732;DHT22;10527;52.124;5.196;2023-02-01T05:32:13;6.70;99.90
20732;DHT22;10527;52.124;5.196;2023-02-01T05:34:48;6.70;99.90
20732;DHT22;10527;52.124;5.196;2023-02-01T05:37:15;6.70;99.90
20732;DHT22;10527;52.124;5.196;2023-02-01T05:39:44;6.80;99.90
20732;DHT22;10527;52.124;5.196;2023-02-01T05:42:11;6.80;99.90
20732;DHT22;10527;52.124;5.196;2023-02-01T05:44:38;6.80;99.90
20732;DHT22;10527;52.124;5.196;2023-02-01T05:47:05;6.80;99.90
20732;DHT22;10527;52.124;5.196;2023-02-01T05:49:32;6.80;99.90
20732;DHT22;10527;52.124;5.196;2023-02-01T05:51:58;6.80;99.90
20732;DHT22;10527;52.124;5.196;2023-02-01T05:54:26;6.80;99.90
20732;DHT22;10527;52.124;5.196;2023-02-01T05:56:53;6.80;99.90
20732;DHT22;10527;52.124;5.196;2023-02-01T05:59:20;6.80;99.90
20732;DHT22;10527;52.124;5.196;2023-02-01T06:01:46;6.80;99.90
20732;DHT22;10527;52.124;5.196;2023-02-01T06:04:16;6.80;99.90
20732;DHT22;10527;52.124;5.196;2023-02-01T06:06:43;6.70;99.90
20732;DHT22;10527;52.124;5.196;2023-02-01T06:09:10;6.80;99.90
20732;DHT22;10527;52.124;5.196;2023-02-01T06:11:39;6.70;99.90
20732;DHT22;10527;52.124;5.196;2023-02-01T06:14:07;6.80;99.90
20732;DHT22;10527;52.124;5.196;2023-02-01T06:16:34;6.70;99.90
20732;DHT22;10527;52.124;5.196;2023-02-01T06:19:01;6.70;99.90
20732;DHT22;10527;52.124;5.196;2023-02-01T06:21:28;6.70;99.90
20732;DHT22;10527;52.124;5.196;2023-02-01T06:23:55;6.70;99.90
20732;DHT22;10527;52.124;5.196;2023-02-01T06:26:24;6.70;99.90
20732;DHT22;10527;52.124;5.196;2023-02-01T06:28:51;6.70;99.90
20732;DHT22;10527;52.124;5.196;2023-02-01T06:31:18;6.70;99.90
20732;DHT22;10527;52.124;5.196;2023-02-01T06:33:45;6.70;99.90
20732;DHT22;10527;52.124;5.196;2023-02-01T06:36:13;6.60;99.90
20732;DHT22;10527;52.124;5.196;2023-02-01T06:38:41;6.60;99.90
20732;DHT22;10527;52.124;5.196;2023-02-01T06:41:09;6.60;99.90
20732;DHT22;10527;52.124;5.196;2023-02-01T06:43:36;6.60;99.90
20732;DHT22;10527;52.124;5.196;2023-02-01T06:46:05;6.60;99.90
20732;DHT22;10527;52.124;5.196;2023-02-01T06:48:34;6.60;99.90
20732;DHT22;10527;52.124;5.196;2023-02-01T06:51:01;6.60;99.90
20732;DHT22;10527;52.124;5.196;2023-02-01T06:53:28;6.60;99.90
20732;DHT22;10527;52.124;5.196;2023-02-01T06:56:00;6.70;99.90
20732;DHT22;10527;52.124;5.196;2023-02-01T06:58:32;6.70;99.90
20732;DHT22;10527;52.124;5.196;2023-02-01T07:01:07;6.70;99.90
20732;DHT22;10527;52.124;5.196;2023-02-01T07:03:35;6.80;99.90
20732;DHT22;10527;52.124;5.196;2023-02-01T07:06:13;6.70;99.90
20732;DHT22;10527;52.124;5.196;2023-02-01T07:08:43;6.70;99.90
20732;DHT22;10527;52.124;5.196;2023-02-01T07:11:15;6.80;99.90
20732;DHT22;10527;52.124;5.196;2023-02-01T07:13:43;6.80;99.90
20732;DHT22;10527;52.124;5.196;2023-02-01T07:16:13;6.80;99.90
20732;DHT22;10527;52.124;5.196;2023-02-01T07:18:44;6.80;99.90
20732;DHT22;10527;52.124;5.196;2023-02-01T07:21:12;6.70;99.90
20732;DHT22;10527;52.124;5.196;2023-02-01T07:23:39;6.70;99.90
20732;DHT22;10527;52.124;5.196;2023-02-01T07:26:07;6.70;99.90
20732;DHT22;10527;52.124;5.196;2023-02-01T07:28:36;6.80;99.90
20732;DHT22;10527;52.124;5.196;2023-02-01T07:31:11;6.70;99.90
20732;DHT22;10527;52.124;5.196;2023-02-01T07:33:48;6.80;99.90
20732;DHT22;10527;52.124;5.196;2023-02-01T07:36:19;6.80;99.90
20732;DHT22;10527;52.124;5.196;2023-02-01T07:38:46;6.80;99.90
20732;DHT22;10527;52.124;5.196;2023-02-01T07:41:13;6.80;99.90
20732;DHT22;10527;52.124;5.196;2023-02-01T07:43:41;6.80;99.90
20732;DHT22;10527;52.124;5.196;2023-02-01T07:46:10;6.80;99.90
20732;DHT22;10527;52.124;5.196;2023-02-01T07:48:37;6.80;99.90
20732;DHT22;10527;52.124;5.196;2023-02-01T07:51:07;6.80;99.90
20732;DHT22;10527;52.124;5.196;2023-02-01T07:53:38;6.80;99.90
20732;DHT22;10527;52.124;5.196;2023-02-01T07:56:11;6.80;99.90
20732;DHT22;10527;52.124;5.196;2023-02-01T07:58:46;6.80;99.90
20732;DHT22;10527;52.124;5.196;2023-02-01T08:01:22;6.80;99.90
20732;DHT22;10527;52.124;5.196;2023-02-01T08:03:53;6.80;99.90
20732;DHT22;10527;52.124;5.196;2023-02-01T08:06:23;6.80;99.90
20732;DHT22;10527;52.124;5.196;2023-02-01T08:08:51;6.90;99.90
20732;DHT22;10527;52.124;5.196;2023-02-01T08:11:20;6.80;99.90
20732;DHT22;10527;52.124;5.196;2023-02-01T08:13:49;6.80;99.90
20732;DHT22;10527;52.124;5.196;2023-02-01T08:16:17;6.80;99.90
20732;DHT22;10527;52.124;5.196;2023-02-01T08:18:46;6.80;99.90
20732;DHT22;10527;52.124;5.196;2023-02-01T08:21:24;6.80;99.90
20732;DHT22;10527;52.124;5.196;2023-02-01T08:23:52;6.80;99.90
20732;DHT22;10527;52.124;5.196;2023-02-01T08:26:24;6.80;99.90
20732;DHT22;10527;52.124;5.196;2023-02-01T08:28:58;6.80;99.90
20732;DHT22;10527;52.124;5.196;2023-02-01T08:31:27;6.80;99.90
20732;DHT22;10527;52.124;5.196;2023-02-01T08:34:00;6.80;99.90
20732;DHT22;10527;52.124;5.196;2023-02-01T08:36:37;6.80;99.90
20732;DHT22;10527;52.124;5.196;2023-02-01T08:39:04;6.80;99.90
20732;DHT22;10527;52.124;5.196;2023-02-01T08:41:35;6.80;99.90
20732;DHT22;10527;52.124;5.196;2023-02-01T08:44:02;6.90;99.90
20732;DHT22;10527;52.124;5.196;2023-02-01T08:46:29;6.90;99.90
20732;DHT22;10527;52.124;5.196;2023-02-01T08:48:56;6.90;99.90
20732;DHT22;10527;52.124;5.196;2023-02-01T08:51:23;6.90;99.90
20732;DHT22;10527;52.124;5.196;2023-02-01T08:53:51;6.90;99.90
20732;DHT22;10527;52.124;5.196;2023-02-01T08:56:18;7.00;99.90
20732;DHT22;10527;52.124;5.196;2023-02-01T08:58:47;7.00;99.90
20732;DHT22;10527;52.124;5.196;2023-02-01T09:01:15;7.10;99.90
20732;DHT22;10527;52.124;5.196;2023-02-01T09:03:43;7.10;99.90
20732;DHT22;10527;52.124;5.196;2023-02-01T09:06:12;7.10;99.90
20732;DHT22;10527;52.124;5.196;2023-02-01T09:08:43;7.10;99.90
20732;DHT22;10527;52.124;5.196;2023-02-01T09:11:15;7.20;99.90
20732;DHT22;10527;52.124;5.196;2023-02-01T09:13:43;7.30;99.90
20732;DHT22;10527;52.124;5.196;2023-02-01T09:16:11;7.40;99.90
20732;DHT22;10527;52.124;5.196;2023-02-01T09:18:38;7.40;99.90
20732;DHT22;10527;52.124;5.196;2023-02-01T09:21:21;7.50;99.90
20732;DHT22;10527;52.124;5.196;2023-02-01T09:23:50;7.60;99.90
20732;DHT22;10527;52.124;5.196;2023-02-01T09:26:18;7.70;99.90
20732;DHT22;10527;52.124;5.196;2023-02-01T09:28:48;7.70;99.90
20732;DHT22;10527;52.124;5.196;2023-02-01T09:31:15;7.70;99.90
20732;DHT22;10527;52.124;5.196;2023-02-01T09:33:45;7.60;99.90
20732;DHT22;10527;52.124;5.196;2023-02-01T09:36:11;7.70;99.90
20732;DHT22;10527;52.124;5.196;2023-02-01T09:38:38;7.70;99.90
20732;DHT22;10527;52.124;5.196;2023-02-01T09:44:37;7.60;99.90
20732;DHT22;10527;52.124;5.196;2023-02-01T09:47:16;7.70;99.90
20732;DHT22;10527;52.124;5.196;2023-02-01T09:50:10;7.70;99.90
20732;DHT22;10527;52.124;5.196;2023-02-01T09:55:37;7.70;99.90
20732;DHT22;10527;52.124;5.196;2023-02-01T09:58:24;7.60;99.90
20732;DHT22;10527;52.124;5.196;2023-02-01T10:00:59;7.60;99.90
20732;DHT22;10527;52.124;5.196;2023-02-01T10:03:31;7.60;99.90
20732;DHT22;10527;52.124;5.196;2023-02-01T10:09:43;7.60;99.90
20732;DHT22;10527;52.124;5.196;2023-02-01T10:24:34;7.40;99.90
20732;DHT22;10527;52.124;5.196;2023-02-01T10:27:10;7.20;99.90
20732;DHT22;10527;52.124;5.196;2023-02-01T10:29:55;7.30;99.90
20732;DHT22;10527;52.124;5.196;2023-02-01T10:32:31;7.30;99.90
20732;DHT22;10527;52.124;5.196;2023-02-01T10:35:12;7.30;99.90
20732;DHT22;10527;52.124;5.196;2023-02-01T10:37:45;7.30;99.90
20732;DHT22;10527;52.124;5.196;2023-02-01T10:40:22;7.40;99.90
20732;DHT22;10527;52.124;5.196;2023-02-01T10:42:57;7.40;99.90
20732;DHT22;10527;52.124;5.196;2023-02-01T10:45:28;7.40;99.90
20732;DHT22;10527;52.124;5.196;2023-02-01T10:47:58;7.40;99.90
20732;DHT22;10527;52.124;5.196;2023-02-01T10:50:46;7.40;99.90
20732;DHT22;10527;52.124;5.196;2023-02-01T10:53:41;7.40;99.90
20732;DHT22;10527;52.124;5.196;2023-02-01T10:56:13;7.60;99.90
20732;DHT22;10527;52.124;5.196;2023-02-01T10:58:46;7.50;99.90
20732;DHT22;10527;52.124;5.196;2023-02-01T11:01:18;7.60;99.90
20732;DHT22;10527;52.124;5.196;2023-02-01T11:03:54;7.70;99.90
20732;DHT22;10527;52.124;5.196;2023-02-01T11:06:43;7.70;99.90
20732;DHT22;10527;52.124;5.196;2023-02-01T11:09:23;7.70;99.90
20732;DHT22;10527;52.124;5.196;2023-02-01T11:11:53;7.80;99.90
20732;DHT22;10527;52.124;5.196;2023-02-01T11:17:27;7.70;99.90
20732;DHT22;10527;52.124;5.196;2023-02-01T11:22:58;7.60;99.90
20732;DHT22;10527;52.124;5.196;2023-02-01T11:25:25;7.60;99.90
20732;DHT22;10527;52.124;5.196;2023-02-01T11:27:54;7.70;99.90
20732;DHT22;10527;52.124;5.196;2023-02-01T11:30:38;7.70;99.90
20732;DHT22;10527;52.124;5.196;2023-02-01T11:33:13;7.80;99.90
20732;DHT22;10527;52.124;5.196;2023-02-01T11:35:47;7.80;99.90
20732;DHT22;10527;52.124;5.196;2023-02-01T11:38:31;7.90;99.90
20732;DHT22;10527;52.124;5.196;2023-02-01T11:41:22;7.90;99.90
20732;DHT22;10527;52.124;5.196;2023-02-01T11:44:01;7.90;99.90
20732;DHT22;10527;52.124;5.196;2023-02-01T11:46:45;8.00;99.90
20732;DHT22;10527;52.124;5.196;2023-02-01T11:49:21;8.00;99.90
20732;DHT22;10527;52.124;5.196;2023-02-01T11:52:20;8.10;99.90
20732;DHT22;10527;52.124;5.196;2023-02-01T11:55:03;8.10;99.90
20732;DHT22;10527;52.124;5.196;2023-02-01T12:06:53;8.10;99.90
20732;DHT22;10527;52.124;5.196;2023-02-01T12:09:42;8.20;99.90
20732;DHT22;10527;52.124;5.196;2023-02-01T12:16:11;8.30;99.90
20732;DHT22;10527;52.124;5.196;2023-02-01T12:36:47;8.30;99.90
20732;DHT22;10527;52.124;5.196;2023-02-01T12:43:03;8.20;99.90
20732;DHT22;10527;52.124;5.196;2023-02-01T12:45:58;8.20;99.90
20732;DHT22;10527;52.124;5.196;2023-02-01T12:48:37;8.30;99.90
20732;DHT22;10527;52.124;5.196;2023-02-01T12:51:16;8.20;99.90
20732;DHT22;10527;52.124;5.196;2023-02-01T12:54:03;8.30;99.90
20732;DHT22;10527;52.124;5.196;2023-02-01T12:56:59;8.40;99.90
20732;DHT22;10527;52.124;5.196;2023-02-01T12:59:41;8.40;99.90
20732;DHT22;10527;52.124;5.196;2023-02-01T13:02:28;8.30;99.90
20732;DHT22;10527;52.124;5.196;2023-02-01T13:07:47;8.30;99.90
20732;DHT22;10527;52.124;5.196;2023-02-01T13:10:41;8.30;99.90
20732;DHT22;10527;52.124;5.196;2023-02-01T13:16:23;8.30;99.90
20732;DHT22;10527;52.124;5.196;2023-02-01T13:19:23;8.30;99.90
20732;DHT22;10527;52.124;5.196;2023-02-01T13:22:20;8.40;99.90
20732;DHT22;10527;52.124;5.196;2023-02-01T13:25:12;8.30;99.90
20732;DHT22;10527;52.124;5.196;2023-02-01T13:27:43;8.40;99.90
20732;DHT22;10527;52.124;5.196;2023-02-01T13:30:19;8.40;99.90
20732;DHT22;10527;52.124;5.196;2023-02-01T13:36:27;8.40;99.90
20732;DHT22;10527;52.124;5.196;2023-02-01T13:43:14;8.40;99.90
20732;DHT22;10527;52.124;5.196;2023-02-01T13:45:47;8.40;99.90
20732;DHT22;10527;52.124;5.196;2023-02-01T13:48:28;8.50;99.90
20732;DHT22;10527;52.124;5.196;2023-02-01T13:51:07;8.50;99.90
20732;DHT22;10527;52.124;5.196;2023-02-01T13:53:36;8.50;99.90
20732;DHT22;10527;52.124;5.196;2023-02-01T13:58:43;8.50;99.90
20732;DHT22;10527;52.124;5.196;2023-02-01T14:04:02;8.50;99.90
20732;DHT22;10527;52.124;5.196;2023-02-01T14:09:30;8.50;99.90
20732;DHT22;10527;52.124;5.196;2023-02-01T14:12:44;8.50;99.90
20732;DHT22;10527;52.124;5.196;2023-02-01T14:15:27;8.50;99.90
20732;DHT22;10527;52.124;5.196;2023-02-01T14:17:55;8.50;99.90
20732;DHT22;10527;52.124;5.196;2023-02-01T14:20:41;8.50;99.90
20732;DHT22;10527;52.124;5.196;2023-02-01T14:23:20;8.50;99.90
20732;DHT22;10527;52.124;5.196;2023-02-01T14:26:02;8.50;99.90
20732;DHT22;10527;52.124;5.196;2023-02-01T14:28:31;8.50;99.90
20732;DHT22;10527;52.124;5.196;2023-02-01T14:31:14;8.40;99.90
20732;DHT22;10527;52.124;5.196;2023-02-01T14:34:27;8.50;99.90
20732;DHT22;10527;52.124;5.196;2023-02-01T14:37:03;8.40;99.90
20732;DHT22;10527;52.124;5.196;2023-02-01T14:42:50;8.40;99.90
20732;DHT22;10527;52.124;5.196;2023-02-01T14:47:48;8.50;99.90
20732;DHT22;10527;52.124;5.196;2023-02-01T14:50:38;8.50;99.90
20732;DHT22;10527;52.124;5.196;2023-02-01T14:55:54;8.40;99.90
20732;DHT22;10527;52.124;5.196;2023-02-01T14:58:35;8.40;99.90
20732;DHT22;10527;52.124;5.196;2023-02-01T15:01:32;8.40;99.90
20732;DHT22;10527;52.124;5.196;2023-02-01T15:04:14;8.40;99.90
20732;DHT22;10527;52.124;5.196;2023-02-01T15:06:52;8.40;99.90
20732;DHT22;10527;52.124;5.196;2023-02-01T15:09:36;8.40;99.90
20732;DHT22;10527;52.124;5.196;2023-02-01T15:14:48;8.50;99.90
20732;DHT22;10527;52.124;5.196;2023-02-01T15:17:57;8.50;99.90
20732;DHT22;10527;52.124;5.196;2023-02-01T15:20:31;8.50;99.90
20732;DHT22;10527;52.124;5.196;2023-02-01T15:23:00;8.50;99.90
20732;DHT22;10527;52.124;5.196;2023-02-01T15:25:36;8.50;99.90
20732;DHT22;10527;52.124;5.196;2023-02-01T15:28:08;8.50;99.90
20732;DHT22;10527;52.124;5.196;2023-02-01T15:30:39;8.50;99.90
20732;DHT22;10527;52.124;5.196;2023-02-01T15:33:18;8.50;99.90
20732;DHT22;10527;52.124;5.196;2023-02-01T15:35:49;8.50;99.90
20732;DHT22;10527;52.124;5.196;2023-02-01T15:43:38;8.50;99.90
20732;DHT22;10527;52.124;5.196;2023-02-01T15:46:16;8.50;99.90
20732;DHT22;10527;52.124;5.196;2023-02-01T15:48:50;8.60;99.90
20732;DHT22;10527;52.124;5.196;2023-02-01T15:51:24;8.50;99.90
20732;DHT22;10527;52.124;5.196;2023-02-01T15:54:00;8.50;99.90
20732;DHT22;10527;52.124;5.196;2023-02-01T15:56:37;8.60;99.90
20732;DHT22;10527;52.124;5.196;2023-02-01T15:59:16;8.60;99.90
20732;DHT22;10527;52.124;5.196;2023-02-01T16:01:45;8.60;99.90
20732;DHT22;10527;52.124;5.196;2023-02-01T16:04:20;8.60;99.90
20732;DHT22;10527;52.124;5.196;2023-02-01T16:06:55;8.50;99.90
20732;DHT22;10527;52.124;5.196;2023-02-01T16:09:34;8.60;99.90
20732;DHT22;10527;52.124;5.196;2023-02-01T16:12:46;8.60;99.90
20732;DHT22;10527;52.124;5.196;2023-02-01T16:15:14;8.60;99.90
20732;DHT22;10527;52.124;5.196;2023-02-01T16:17:41;8.50;99.90
20732;DHT22;10527;52.124;5.196;2023-02-01T16:20:09;8.50;99.90
20732;DHT22;10527;52.124;5.196;2023-02-01T16:22:36;8.50;99.90
20732;DHT22;10527;52.124;5.196;2023-02-01T16:25:03;8.60;99.90
20732;DHT22;10527;52.124;5.196;2023-02-01T16:27:30;8.60;99.90
20732;DHT22;10527;52.124;5.196;2023-02-01T16:29:57;8.50;99.90
20732;DHT22;10527;52.124;5.196;2023-02-01T16:32:24;8.50;99.90
20732;DHT22;10527;52.124;5.196;2023-02-01T16:34:54;8.60;99.90
20732;DHT22;10527;52.124;5.196;2023-02-01T16:37:24;8.60;99.90
20732;DHT22;10527;52.124;5.196;2023-02-01T16:39:53;8.60;99.90
20732;DHT22;10527;52.124;5.196;2023-02-01T16:42:20;8.60;99.90
20732;DHT22;10527;52.124;5.196;2023-02-01T16:44:47;8.60;99.90
20732;DHT22;10527;52.124;5.196;2023-02-01T16:47:17;8.60;99.90
20732;DHT22;10527;52.124;5.196;2023-02-01T16:49:49;8.60;99.90
20732;DHT22;10527;52.124;5.196;2023-02-01T16:52:26;8.60;99.90
20732;DHT22;10527;52.124;5.196;2023-02-01T16:54:53;8.60;99.90
20732;DHT22;10527;52.124;5.196;2023-02-01T16:57:20;8.60;99.90
20732;DHT22;10527;52.124;5.196;2023-02-01T16:59:56;8.60;99.90
20732;DHT22;10527;52.124;5.196;2023-02-01T17:02:23;8.60;99.90
20732;DHT22;10527;52.124;5.196;2023-02-01T17:04:50;8.60;99.90
20732;DHT22;10527;52.124;5.196;2023-02-01T17:07:18;8.60;99.90
20732;DHT22;10527;52.124;5.196;2023-02-01T17:09:46;8.60;99.90
20732;DHT22;10527;52.124;5.196;2023-02-01T17:12:28;8.60;99.90
20732;DHT22;10527;52.124;5.196;2023-02-01T17:14:57;8.60;99.90
20732;DHT22;10527;52.124;5.196;2023-02-01T17:17:35;8.60;99.90
20732;DHT22;10527;52.124;5.196;2023-02-01T17:20:05;8.60;99.90
20732;DHT22;10527;52.124;5.196;2023-02-01T17:22:33;8.60;99.90
20732;DHT22;10527;52.124;5.196;2023-02-01T17:25:00;8.70;99.90
20732;DHT22;10527;52.124;5.196;2023-02-01T17:27:27;8.70;99.90
20732;DHT22;10527;52.124;5.196;2023-02-01T17:29:55;8.60;99.90
20732;DHT22;10527;52.124;5.196;2023-02-01T17:32:24;8.70;99.90
20732;DHT22;10527;52.124;5.196;2023-02-01T17:34:52;8.70;99.90
20732;DHT22;10527;52.124;5.196;2023-02-01T17:37:31;8.70;99.90
20732;DHT22;10527;52.124;5.196;2023-02-01T17:40:02;8.70;99.90
20732;DHT22;10527;52.124;5.196;2023-02-01T17:42:29;8.70;99.90
20732;DHT22;10527;52.124;5.196;2023-02-01T17:48:04;8.70;99.90
20732;DHT22;10527;52.124;5.196;2023-02-01T17:50:36;8.80;99.90
20732;DHT22;10527;52.124;5.196;2023-02-01T17:53:05;8.70;99.90
20732;DHT22;10527;52.124;5.196;2023-02-01T17:55:37;8.70;99.90
20732;DHT22;10527;52.124;5.196;2023-02-01T17:58:11;8.80;99.90
20732;DHT22;10527;52.124;5.196;2023-02-01T18:00:42;8.80;99.90
20732;DHT22;10527;52.124;5.196;2023-02-01T18:03:29;8.80;99.90
20732;DHT22;10527;52.124;5.196;2023-02-01T18:06:02;8.70;99.90
20732;DHT22;10527;52.124;5.196;2023-02-01T18:08:33;8.70;99.90
20732;DHT22;10527;52.124;5.196;2023-02-01T18:11:01;8.80;99.90
20732;DHT22;10527;52.124;5.196;2023-02-01T18:13:31;8.80;99.90
20732;DHT22;10527;52.124;5.196;2023-02-01T18:15:58;8.80;99.90
20732;DHT22;10527;52.124;5.196;2023-02-01T18:18:25;8.80;99.90
20732;DHT22;10527;52.124;5.196;2023-02-01T18:20:54;8.80;99.90
20732;DHT22;10527;52.124;5.196;2023-02-01T18:23:25;8.80;99.90
20732;DHT22;10527;52.124;5.196;2023-02-01T18:25:54;8.80;99.90
20732;DHT22;10527;52.124;5.196;2023-02-01T18:28:21;8.80;99.90
20732;DHT22;10527;52.124;5.196;2023-02-01T18:30:50;8.80;99.90
20732;DHT22;10527;52.124;5.196;2023-02-01T18:33:19;8.90;99.90
20732;DHT22;10527;52.124;5.196;2023-02-01T18:35:46;8.80;99.90
20732;DHT22;10527;52.124;5.196;2023-02-01T18:38:14;8.80;99.90